Buffalo, New York
Current Conditions -  °F | °C
As of 9:54 PM on Tuesday 25 Nov 2014 (Local Time) from KBUF Reporting Station
Overcast Overcast  
Wind Chill: 27°   Ceiling: 3300
Heat Index: 34°   Visibility: 10mi
Dew Point: 22°   Wind: 9mph
Humidity: 61%   Direction: 260°W
Pressure: 30.18"   Gusts: NA
Location:  42.89°N, 78.88°W
Report Text: KBUF 260254Z 26008KT 10SM FEW020 OVC033 01/M06 A3018 RMK AO2 SLP227 60000 T00111056 51027
Loading
Personal Weather Stations






























Interactive Weather Map New forecast layout! Learn more

10-Day Weather Forecast

Advertisements
Track Severe Weather on mobile